createdAt,value
2019-03-30T00:00:18.204Z,24.10
2019-03-30T00:02:47.239Z,29.25
2019-03-30T00:05:16.106Z,27.05
2019-03-30T00:07:45.009Z,26.00
2019-03-30T00:10:13.869Z,28.38
2019-03-30T00:12:42.714Z,26.02
2019-03-30T00:15:11.535Z,22.10
2019-03-30T00:17:40.606Z,23.62
2019-03-30T00:20:09.389Z,22.22
2019-03-30T00:22:38.384Z,24.87
2019-03-30T00:25:07.684Z,24.90
2019-03-30T00:27:36.697Z,26.37
2019-03-30T00:30:08.631Z,24.98
2019-03-30T00:32:37.428Z,31.35
2019-03-30T00:35:07.248Z,25.05
2019-03-30T00:37:36.219Z,21.73
2019-03-30T00:40:06.539Z,20.52
2019-03-30T00:42:35.439Z,26.50
2019-03-30T00:45:06.069Z,30.75
2019-03-30T00:47:34.775Z,27.50
2019-03-30T00:50:03.742Z,32.50
2019-03-30T00:52:32.780Z,24.72
2019-03-30T00:55:01.734Z,22.93
2019-03-30T00:57:30.623Z,24.52
2019-03-30T00:59:59.610Z,31.65
2019-03-30T01:02:28.592Z,26.90
2019-03-30T01:04:57.526Z,28.85
2019-03-30T01:07:26.402Z,27.98
2019-03-30T01:09:55.274Z,24.15
2019-03-30T01:12:24.066Z,27.07
2019-03-30T01:14:53.052Z,25.00
2019-03-30T01:17:21.813Z,24.43
2019-03-30T01:20:02.294Z,33.15
2019-03-30T01:22:21.046Z,22.87
2019-03-30T01:24:49.964Z,24.90
2019-03-30T01:27:18.716Z,32.50
2019-03-30T01:29:47.526Z,31.30
2019-03-30T01:32:16.606Z,26.60
2019-03-30T01:34:45.595Z,27.85
2019-03-30T01:37:14.316Z,31.02
2019-03-30T01:39:43.295Z,28.25
2019-03-30T01:42:12.267Z,29.52
2019-03-30T01:44:41.047Z,30.85
2019-03-30T01:47:09.837Z,24.32
2019-03-30T01:49:38.728Z,30.90
2019-03-30T01:52:07.718Z,33.98
2019-03-30T01:54:36.648Z,30.35
2019-03-30T01:57:05.710Z,29.87
2019-03-30T01:59:34.601Z,32.10
2019-03-30T02:02:03.491Z,25.75
2019-03-30T02:04:32.480Z,29.67
2019-03-30T02:07:01.520Z,28.65
2019-03-30T02:09:30.661Z,32.30
2019-03-30T02:11:59.693Z,30.30
2019-03-30T02:14:28.901Z,30.90
2019-03-30T02:16:57.842Z,27.15
2019-03-30T02:19:26.850Z,26.70
2019-03-30T02:21:55.917Z,26.90
2019-03-30T02:24:24.961Z,26.90
2019-03-30T02:26:54.025Z,24.40
2019-03-30T02:29:23.014Z,25.30
2019-03-30T02:31:51.843Z,29.15
2019-03-30T02:34:20.809Z,29.72
2019-03-30T02:36:49.696Z,30.15
2019-03-30T02:39:18.674Z,31.45
2019-03-30T02:41:47.466Z,31.23
2019-03-30T02:44:16.358Z,35.20
2019-03-30T02:46:45.107Z,30.92
2019-03-30T02:49:13.948Z,35.50
2019-03-30T02:51:42.928Z,31.35
2019-03-30T02:54:11.909Z,29.52
2019-03-30T02:56:41.015Z,27.80
2019-03-30T02:59:09.868Z,33.75
2019-03-30T03:01:38.790Z,27.60
2019-03-30T03:04:07.671Z,30.72
2019-03-30T03:06:36.560Z,29.77
2019-03-30T03:09:08.140Z,29.10
2019-03-30T03:11:37.331Z,34.38
2019-03-30T03:14:06.301Z,29.42
2019-03-30T03:16:35.111Z,34.40
2019-03-30T03:19:04.610Z,32.23
2019-03-30T03:21:33.382Z,31.73
2019-03-30T03:24:02.362Z,27.55
2019-03-30T03:26:31.267Z,28.95
2019-03-30T03:29:00.374Z,29.63
2019-03-30T03:31:29.116Z,34.45
2019-03-30T03:33:57.974Z,32.53
2019-03-30T03:36:27.033Z,31.02
2019-03-30T03:38:56.115Z,27.65
2019-03-30T03:41:25.017Z,34.23
2019-03-30T03:43:53.972Z,29.30
2019-03-30T03:46:23.389Z,25.77
2019-03-30T03:48:52.316Z,32.48
2019-03-30T03:51:26.222Z,28.32
2019-03-30T03:53:51.697Z,34.23
2019-03-30T03:56:21.107Z,32.05
2019-03-30T03:58:50.136Z,37.23
2019-03-30T04:01:20.013Z,33.85
2019-03-30T04:03:48.825Z,30.05
2019-03-30T04:06:17.700Z,33.92
2019-03-30T04:08:46.480Z,29.77
2019-03-30T04:11:15.371Z,37.80
2019-03-30T04:13:44.093Z,38.15
2019-03-30T04:16:12.860Z,38.83
2019-03-30T04:18:47.969Z,32.45
2019-03-30T04:21:16.060Z,34.25
2019-03-30T04:23:45.151Z,40.90
2019-03-30T04:26:14.152Z,38.20
2019-03-30T04:28:42.931Z,34.80
2019-03-30T04:31:11.726Z,32.03
2019-03-30T04:33:40.712Z,34.90
2019-03-30T04:36:09.514Z,32.60
2019-03-30T04:38:38.493Z,39.98
2019-03-30T04:41:07.473Z,40.40
2019-03-30T04:43:36.477Z,30.02
2019-03-30T04:46:05.465Z,41.30
2019-03-30T04:48:34.186Z,36.50
2019-03-30T04:51:02.895Z,41.37
2019-03-30T04:53:31.834Z,38.60
2019-03-30T04:56:00.816Z,38.13
2019-03-30T04:58:29.679Z,38.33
2019-03-30T05:00:58.597Z,42.58
2019-03-30T05:03:27.499Z,31.52
2019-03-30T05:05:56.393Z,37.45
2019-03-30T05:08:25.157Z,38.60
2019-03-30T05:10:54.012Z,46.18
2019-03-30T05:13:22.929Z,34.67
2019-03-30T05:15:51.860Z,40.45
2019-03-30T05:18:20.929Z,40.70
2019-03-30T05:20:52.722Z,38.05
2019-03-30T05:23:21.684Z,38.92
2019-03-30T05:25:50.591Z,37.10
2019-03-30T05:28:19.402Z,40.12
2019-03-30T05:30:48.161Z,36.40
2019-03-30T05:33:16.965Z,43.45
2019-03-30T05:35:48.655Z,38.55
2019-03-30T05:38:19.814Z,36.85
2019-03-30T05:43:21.307Z,36.50
2019-03-30T05:45:52.474Z,39.38
2019-03-30T05:48:23.147Z,43.17
2019-03-30T05:50:54.767Z,40.15
2019-03-30T05:53:26.328Z,36.38
2019-03-30T05:55:59.230Z,34.48
2019-03-30T05:58:32.039Z,35.30
2019-03-30T06:01:01.226Z,38.55
2019-03-30T06:03:33.531Z,38.20
2019-03-30T06:06:04.269Z,37.25
2019-03-30T06:08:38.300Z,39.90
2019-03-30T06:11:10.009Z,38.63
2019-03-30T06:13:45.227Z,38.95
2019-03-30T06:16:16.781Z,36.50
2019-03-30T06:18:50.003Z,35.23
2019-03-30T06:21:23.561Z,39.40
2019-03-30T06:23:54.571Z,28.50
2019-03-30T06:26:28.503Z,34.20
2019-03-30T06:29:00.941Z,29.70
2019-03-30T06:31:32.908Z,31.40
2019-03-30T06:34:06.653Z,31.52
2019-03-30T06:36:36.412Z,34.18
2019-03-30T06:39:09.426Z,37.93
2019-03-30T06:41:44.519Z,37.70
2019-03-30T06:44:17.217Z,28.20
2019-03-30T06:46:46.897Z,37.75
2019-03-30T06:49:17.134Z,29.02
2019-03-30T06:51:47.666Z,31.05
2019-03-30T06:54:16.747Z,37.40
2019-03-30T06:56:51.029Z,30.45
2019-03-30T06:59:21.949Z,30.90
2019-03-30T07:01:56.078Z,27.20
2019-03-30T07:04:27.067Z,28.65
2019-03-30T07:07:00.980Z,25.90
2019-03-30T07:09:32.959Z,24.70
2019-03-30T07:12:03.302Z,30.32
2019-03-30T07:14:35.791Z,27.50
2019-03-30T07:17:11.052Z,29.75
2019-03-30T07:19:42.602Z,24.07
2019-03-30T07:22:21.964Z,23.57
2019-03-30T07:24:54.894Z,27.32
2019-03-30T07:27:28.403Z,26.45
2019-03-30T07:30:01.411Z,23.42
2019-03-30T07:32:33.026Z,22.85
2019-03-30T07:35:04.635Z,30.17
2019-03-30T07:37:39.612Z,25.12
2019-03-30T07:40:13.805Z,27.35
2019-03-30T07:42:44.063Z,28.20
2019-03-30T07:45:14.972Z,29.40
2019-03-30T07:47:46.661Z,28.20
2019-03-30T07:50:20.135Z,25.57
2019-03-30T07:52:53.057Z,21.50
2019-03-30T07:55:24.938Z,27.35
2019-03-30T07:57:55.992Z,28.80
2019-03-30T08:00:30.695Z,27.45
2019-03-30T08:03:00.407Z,25.25
2019-03-30T08:05:32.372Z,22.65
2019-03-30T08:08:04.738Z,21.12
2019-03-30T08:10:47.007Z,25.80
2019-03-30T08:13:20.323Z,23.62
2019-03-30T08:15:51.957Z,29.95
2019-03-30T08:18:26.160Z,24.92
2019-03-30T08:20:56.186Z,26.68
2019-03-30T08:23:25.031Z,24.20
2019-03-30T08:26:03.253Z,29.92
2019-03-30T08:28:33.870Z,21.37
2019-03-30T08:31:02.821Z,16.40
2019-03-30T08:33:32.282Z,19.50
2019-03-30T08:36:01.429Z,21.45
2019-03-30T08:38:30.408Z,21.62
2019-03-30T08:40:59.321Z,22.32
2019-03-30T08:43:28.123Z,25.80
2019-03-30T08:45:56.987Z,15.72
2019-03-30T08:48:25.877Z,23.12
2019-03-30T08:50:54.624Z,19.37
2019-03-30T08:53:24.205Z,21.75
2019-03-30T08:55:53.077Z,20.40
2019-03-30T08:58:22.162Z,21.17
2019-03-30T09:00:51.037Z,16.32
2019-03-30T09:03:19.928Z,16.12
2019-03-30T09:05:49.027Z,15.43
2019-03-30T09:08:17.950Z,16.77
2019-03-30T09:10:46.880Z,21.23
2019-03-30T09:13:16.107Z,16.30
2019-03-30T09:15:44.870Z,19.87
2019-03-30T09:18:13.730Z,16.05
2019-03-30T09:20:42.421Z,16.20
2019-03-30T09:23:11.133Z,19.35
2019-03-30T09:25:41.269Z,17.98
2019-03-30T09:28:10.229Z,15.38
2019-03-30T09:30:39.070Z,16.50
2019-03-30T09:33:07.934Z,18.25
2019-03-30T09:35:37.251Z,12.28
2019-03-30T09:38:06.134Z,18.35
2019-03-30T09:40:34.888Z,15.85
2019-03-30T09:43:03.864Z,22.62
2019-03-30T09:45:32.744Z,18.98
2019-03-30T09:48:01.524Z,13.78
2019-03-30T09:50:32.522Z,16.85
2019-03-30T09:53:01.265Z,16.02
2019-03-30T09:55:30.228Z,20.65
2019-03-30T09:57:59.303Z,17.07
2019-03-30T10:00:28.475Z,17.95
2019-03-30T10:02:57.273Z,15.98
2019-03-30T10:05:29.794Z,17.55
2019-03-30T10:07:58.845Z,17.00
2019-03-30T10:10:27.749Z,24.47
2019-03-30T10:12:58.883Z,18.75
2019-03-30T10:17:56.463Z,15.63
2019-03-30T10:20:25.331Z,17.40
2019-03-30T10:22:55.316Z,17.77
2019-03-30T10:25:24.149Z,16.52
2019-03-30T10:27:53.130Z,12.13
2019-03-30T10:30:22.042Z,14.18
2019-03-30T10:32:51.951Z,17.87
2019-03-30T10:35:22.050Z,14.05
2019-03-30T10:37:50.766Z,17.95
2019-03-30T10:40:21.043Z,14.28
2019-03-30T10:42:50.122Z,15.85
2019-03-30T10:45:19.099Z,14.28
2019-03-30T10:47:47.868Z,17.15
2019-03-30T10:50:16.752Z,13.18
2019-03-30T10:52:45.562Z,17.98
2019-03-30T10:55:14.464Z,19.98
2019-03-30T10:57:43.295Z,16.15
2019-03-30T11:00:14.347Z,19.00
2019-03-30T11:02:43.416Z,24.63
2019-03-30T11:05:12.258Z,15.70
2019-03-30T11:07:41.136Z,19.67
2019-03-30T11:10:09.904Z,18.12
2019-03-30T11:12:38.816Z,15.55
2019-03-30T11:15:07.667Z,16.20
2019-03-30T11:17:36.648Z,18.20
2019-03-30T11:20:06.019Z,18.10
2019-03-30T11:22:35.597Z,16.48
2019-03-30T11:25:07.660Z,16.93
2019-03-30T11:27:35.487Z,17.52
2019-03-30T11:30:06.202Z,16.23
2019-03-30T11:32:35.133Z,17.57
2019-03-30T11:35:06.643Z,21.95
2019-03-30T11:37:36.151Z,21.37
2019-03-30T11:40:06.779Z,19.25
2019-03-30T11:42:35.590Z,14.65
2019-03-30T11:45:04.922Z,14.85
2019-03-30T11:47:33.704Z,16.05
2019-03-30T11:50:02.972Z,18.62
2019-03-30T11:52:33.442Z,14.95
2019-03-30T11:55:02.820Z,16.35
2019-03-30T11:57:31.674Z,17.30
2019-03-30T12:00:00.652Z,15.35
2019-03-30T12:02:29.574Z,14.95
2019-03-30T12:04:58.515Z,15.30
2019-03-30T12:07:27.290Z,16.90
2019-03-30T12:09:56.314Z,14.83
2019-03-30T12:12:25.297Z,14.53
2019-03-30T12:14:54.165Z,16.73
2019-03-30T12:17:22.936Z,16.30
2019-03-30T12:19:51.795Z,15.25
2019-03-30T12:22:20.646Z,14.28
2019-03-30T12:24:49.877Z,18.07
2019-03-30T12:27:18.697Z,16.55
2019-03-30T12:29:47.643Z,16.17
2019-03-30T12:32:17.098Z,21.15
2019-03-30T12:34:46.690Z,19.55
2019-03-30T12:37:16.218Z,17.50
2019-03-30T12:39:45.052Z,20.40
2019-03-30T12:42:13.895Z,21.17
2019-03-30T12:44:42.751Z,21.77
2019-03-30T12:47:11.742Z,16.12
2019-03-30T12:49:40.632Z,16.80
2019-03-30T12:52:09.373Z,19.40
2019-03-30T12:54:38.453Z,18.17
2019-03-30T12:57:07.536Z,18.15
2019-03-30T12:59:36.593Z,16.02
2019-03-30T13:02:05.715Z,23.38
2019-03-30T13:04:34.586Z,18.27
2019-03-30T13:07:03.304Z,19.77
2019-03-30T13:09:34.695Z,18.73
2019-03-30T13:12:02.455Z,16.37
2019-03-30T13:14:31.409Z,18.05
2019-03-30T13:17:00.330Z,16.23
2019-03-30T13:19:29.186Z,16.40
2019-03-30T13:21:57.986Z,17.07
2019-03-30T13:24:26.846Z,23.10
2019-03-30T13:26:55.670Z,17.95
2019-03-30T13:29:24.750Z,15.72
2019-03-30T13:31:53.542Z,17.27
2019-03-30T13:34:22.503Z,15.63
2019-03-30T13:36:51.502Z,12.73
2019-03-30T13:39:20.290Z,10.98
2019-03-30T13:41:49.179Z,15.78
2019-03-30T13:44:18.063Z,11.97
2019-03-30T13:46:47.191Z,15.03
2019-03-30T13:49:16.183Z,20.72
2019-03-30T13:51:45.192Z,16.37
2019-03-30T13:54:13.973Z,18.85
2019-03-30T13:56:42.845Z,15.63
2019-03-30T13:59:11.652Z,16.20
2019-03-30T14:01:40.582Z,15.08
2019-03-30T14:04:09.395Z,16.57
2019-03-30T14:06:38.327Z,22.80
2019-03-30T14:09:07.318Z,15.80
2019-03-30T14:11:36.074Z,16.30
2019-03-30T14:14:04.854Z,20.30
2019-03-30T14:16:33.962Z,20.90
2019-03-30T14:19:03.085Z,20.50
2019-03-30T14:21:31.925Z,18.05
2019-03-30T14:24:00.836Z,18.25
2019-03-30T14:26:31.681Z,18.77
2019-03-30T14:29:00.242Z,17.52
2019-03-30T14:31:29.200Z,20.60
2019-03-30T14:33:57.934Z,20.02
2019-03-30T14:36:26.789Z,21.27
2019-03-30T14:38:55.724Z,20.43
2019-03-30T14:41:24.438Z,23.25
2019-03-30T14:43:53.230Z,24.57
2019-03-30T14:46:23.345Z,19.02
2019-03-30T14:48:52.240Z,21.33
2019-03-30T14:51:20.903Z,25.65
2019-03-30T14:53:52.923Z,18.57
2019-03-30T14:56:21.761Z,23.90
2019-03-30T14:58:50.891Z,24.55
2019-03-30T15:01:19.834Z,18.98
2019-03-30T15:03:48.737Z,21.00
2019-03-30T15:06:17.613Z,19.25
2019-03-30T15:08:52.615Z,17.45
2019-03-30T15:11:20.966Z,23.67
2019-03-30T15:13:49.684Z,20.37
2019-03-30T15:16:18.487Z,23.83
2019-03-30T15:18:47.329Z,20.60
2019-03-30T15:21:16.115Z,22.80
2019-03-30T15:23:44.960Z,16.30
2019-03-30T15:26:13.825Z,22.00
2019-03-30T15:28:43.034Z,16.50
2019-03-30T15:31:11.926Z,17.80
2019-03-30T15:33:40.841Z,18.32
2019-03-30T15:36:09.678Z,18.25
2019-03-30T15:38:38.548Z,14.65
2019-03-30T15:41:07.431Z,15.70
2019-03-30T15:43:38.591Z,18.02
2019-03-30T15:46:07.143Z,21.73
2019-03-30T15:48:35.889Z,20.50
2019-03-30T15:51:04.769Z,16.17
2019-03-30T15:53:33.960Z,17.75
2019-03-30T15:56:04.380Z,17.70
2019-03-30T15:58:33.181Z,13.93
2019-03-30T16:01:02.071Z,21.25
2019-03-30T16:03:31.038Z,18.30
2019-03-30T16:06:00.101Z,17.90
2019-03-30T16:08:28.843Z,20.27
2019-03-30T16:10:57.809Z,18.10
2019-03-30T16:13:26.706Z,15.35
2019-03-30T16:15:55.993Z,18.55
2019-03-30T16:18:25.494Z,17.70
2019-03-30T16:20:54.302Z,25.72
2019-03-30T16:23:23.045Z,28.02
2019-03-30T16:25:52.075Z,19.98
2019-03-30T16:28:21.005Z,20.27
2019-03-30T16:30:50.101Z,16.77
2019-03-30T16:33:19.010Z,17.95
2019-03-30T16:35:47.717Z,22.05
2019-03-30T16:38:16.637Z,19.82
2019-03-30T16:40:45.567Z,18.80
2019-03-30T16:43:14.377Z,16.42
2019-03-30T16:45:43.378Z,22.22
2019-03-30T16:48:14.755Z,16.75
2019-03-30T16:50:42.871Z,23.18
2019-03-30T16:53:12.211Z,18.98
2019-03-30T16:55:41.319Z,18.67
2019-03-30T16:58:10.502Z,24.90
2019-03-30T17:00:55.346Z,23.92
2019-03-30T17:03:10.222Z,23.98
2019-03-30T17:05:43.741Z,25.50
2019-03-30T17:08:12.759Z,22.05
2019-03-30T17:10:41.612Z,23.30
2019-03-30T17:13:11.591Z,18.62
2019-03-30T17:15:46.452Z,21.42
2019-03-30T17:18:17.204Z,18.23
2019-03-30T17:20:46.126Z,21.02
2019-03-30T17:23:15.184Z,21.00
2019-03-30T17:25:44.075Z,24.18
2019-03-30T17:28:13.092Z,21.70
2019-03-30T17:30:42.026Z,26.77
2019-03-30T17:33:10.865Z,18.92
2019-03-30T17:35:39.705Z,27.48
2019-03-30T17:38:08.576Z,31.30
2019-03-30T17:40:37.362Z,25.00
2019-03-30T17:43:06.705Z,22.35
2019-03-30T17:45:35.611Z,28.70
2019-03-30T17:48:04.387Z,25.57
2019-03-30T17:50:33.350Z,23.70
2019-03-30T17:53:02.241Z,25.75
2019-03-30T17:55:34.080Z,24.07
2019-03-30T17:58:12.243Z,25.65
2019-03-30T18:00:32.068Z,28.20
2019-03-30T18:03:00.930Z,24.30
2019-03-30T18:05:33.244Z,27.73
2019-03-30T18:08:01.793Z,26.23
2019-03-30T18:10:30.888Z,28.15
2019-03-30T18:12:59.971Z,25.77
2019-03-30T18:15:28.835Z,26.23
2019-03-30T18:17:57.642Z,27.48
2019-03-30T18:20:26.860Z,26.52
2019-03-30T18:22:55.806Z,31.82
2019-03-30T18:25:24.690Z,28.20
2019-03-30T18:27:53.768Z,27.93
2019-03-30T18:30:41.897Z,25.43
2019-03-30T18:33:15.201Z,28.50
2019-03-30T18:35:41.329Z,24.63
2019-03-30T18:38:12.761Z,26.37
2019-03-30T18:40:41.709Z,32.60
2019-03-30T18:43:10.680Z,31.60
2019-03-30T18:45:39.478Z,31.73
2019-03-30T18:48:15.907Z,27.77
2019-03-30T18:50:44.952Z,30.88
2019-03-30T18:53:16.052Z,32.95
2019-03-30T18:55:47.808Z,36.77
2019-03-30T18:58:16.798Z,32.75
2019-03-30T19:00:47.229Z,34.60
2019-03-30T19:03:19.699Z,40.00
2019-03-30T19:05:46.862Z,33.70
2019-03-30T19:08:15.820Z,35.68
2019-03-30T19:10:45.870Z,33.18
2019-03-30T19:13:14.640Z,39.90
2019-03-30T19:15:43.698Z,34.33
2019-03-30T19:18:12.623Z,38.40
2019-03-30T19:20:41.831Z,33.85
2019-03-30T19:23:10.562Z,37.73
2019-03-30T19:25:39.553Z,46.70
2019-03-30T19:28:08.603Z,42.98
2019-03-30T19:30:37.383Z,40.95
2019-03-30T19:33:06.583Z,43.55
2019-03-30T19:35:37.236Z,46.40
2019-03-30T19:38:06.046Z,42.62
2019-03-30T19:40:34.861Z,42.85
2019-03-30T19:43:05.475Z,48.00
2019-03-30T19:45:34.507Z,49.73
2019-03-30T19:48:03.577Z,47.20
2019-03-30T19:50:32.598Z,51.40
2019-03-30T19:53:01.586Z,63.70
2019-03-30T19:55:30.646Z,54.73
2019-03-30T19:57:59.698Z,64.87
2019-03-30T20:00:28.678Z,61.88
2019-03-30T20:02:57.421Z,59.73
2019-03-30T20:05:26.459Z,65.45
2019-03-30T20:07:55.349Z,61.45
2019-03-30T20:10:24.435Z,61.48
2019-03-30T20:12:53.519Z,69.10
2019-03-30T20:15:22.412Z,69.80
2019-03-30T20:17:51.312Z,66.95
2019-03-30T20:20:20.290Z,66.77
2019-03-30T20:22:49.497Z,71.00
2019-03-30T20:25:18.322Z,64.25
2019-03-30T20:27:47.579Z,75.52
2019-03-30T20:30:16.575Z,67.82
2019-03-30T20:32:45.451Z,80.42
2019-03-30T20:35:14.457Z,67.08
2019-03-30T20:37:43.339Z,76.85
2019-03-30T20:40:12.140Z,76.80
2019-03-30T20:42:40.961Z,78.62
2019-03-30T20:45:09.908Z,81.30
2019-03-30T20:47:38.974Z,78.05
2019-03-30T20:50:08.186Z,77.90
2019-03-30T20:52:37.211Z,69.77
2019-03-30T20:55:07.899Z,86.53
2019-03-30T20:57:36.769Z,90.47
2019-03-30T21:00:08.879Z,79.53
2019-03-30T21:02:37.647Z,76.37
2019-03-30T21:05:06.827Z,86.72
2019-03-30T21:07:35.616Z,83.50
2019-03-30T21:10:07.901Z,90.12
2019-03-30T21:12:37.031Z,83.50
2019-03-30T21:15:06.859Z,87.85
2019-03-30T21:17:35.946Z,87.45
2019-03-30T21:20:06.000Z,82.20
2019-03-30T21:22:35.129Z,82.82
2019-03-30T21:25:04.882Z,85.30
2019-03-30T21:27:34.031Z,86.57
2019-03-30T21:30:03.391Z,80.57
2019-03-30T21:32:32.572Z,87.17
2019-03-30T21:35:01.443Z,84.25
2019-03-30T21:37:30.930Z,76.22
2019-03-30T21:40:00.418Z,84.25
2019-03-30T21:42:29.318Z,71.70
2019-03-30T21:44:58.105Z,79.42
2019-03-30T21:47:27.098Z,75.08
2019-03-30T21:49:55.988Z,69.32
2019-03-30T21:52:24.777Z,72.60
2019-03-30T21:54:53.574Z,79.15
2019-03-30T21:57:22.449Z,74.90
2019-03-30T21:59:51.444Z,73.67
2019-03-30T22:02:20.516Z,77.82
2019-03-30T22:04:49.327Z,69.87
2019-03-30T22:07:18.447Z,69.82
2019-03-30T22:09:47.308Z,69.15
2019-03-30T22:12:16.216Z,75.55
2019-03-30T22:14:45.288Z,66.92
2019-03-30T22:17:14.288Z,64.37
2019-03-30T22:19:43.179Z,61.33
2019-03-30T22:22:11.985Z,72.55
2019-03-30T22:24:41.609Z,68.55
2019-03-30T22:27:10.746Z,63.50
2019-03-30T22:29:40.001Z,67.67
2019-03-30T22:32:09.120Z,65.57
2019-03-30T22:34:38.411Z,66.45
2019-03-30T22:37:07.691Z,59.03
2019-03-30T22:39:40.101Z,62.45
2019-03-30T22:42:09.332Z,60.73
2019-03-30T22:44:38.642Z,61.05
2019-03-30T22:47:07.332Z,57.13
2019-03-30T22:49:37.854Z,60.43
2019-03-30T22:52:07.123Z,61.75
2019-03-30T22:54:35.903Z,62.48
2019-03-30T22:57:04.815Z,60.73
2019-03-30T22:59:33.714Z,68.83
2019-03-30T23:02:02.574Z,57.25
2019-03-30T23:04:31.596Z,61.35
2019-03-30T23:07:01.361Z,50.48
2019-03-30T23:09:33.576Z,56.90
2019-03-30T23:12:04.016Z,64.17
2019-03-30T23:14:32.976Z,59.17
2019-03-30T23:17:03.288Z,56.88
2019-03-30T23:19:32.188Z,58.77
2019-03-30T23:22:00.981Z,62.48
2019-03-30T23:24:29.979Z,67.85
2019-03-30T23:26:58.869Z,68.07
2019-03-30T23:29:27.660Z,60.73
2019-03-30T23:31:56.543Z,55.88
2019-03-30T23:34:25.545Z,55.00
2019-03-30T23:36:54.521Z,62.03
2019-03-30T23:39:23.520Z,59.27
2019-03-30T23:41:52.392Z,59.50
2019-03-30T23:44:21.402Z,64.22
2019-03-30T23:46:50.534Z,68.10
2019-03-30T23:49:19.487Z,67.15
2019-03-30T23:51:48.513Z,70.22
2019-03-30T23:54:17.583Z,70.45
2019-03-30T23:56:46.457Z,71.50
2019-03-30T23:59:15.351Z,66.20
